This is the latest recevied weather packets stored in our database for station/object KD0RIH. If no packets are shown the sender has not sent any weather packets the latest 10 day(s).
| Time | Temp. | Humidity | Pressure | Rain* | Wind** | Luminosity | Snow |
|---|---|---|---|---|---|---|---|
| 1777409383 | 16.67° C | 54% | 1014.9 hPa | 0 mm | - | 310 W/m² | - |
| 1777409078 | 16.67° C | 53% | 1015.3 hPa | 0 mm | - | 419 W/m² | - |
| 1777408775 | 16.67° C | 54% | 1015.3 hPa | 0 mm | - | 295 W/m² | - |
| 1777408471 | 17.78° C | 50% | 1015.3 hPa | 0 mm | - | 302 W/m² | - |
| 1777408166 | 16.67° C | 53% | 1015.4 hPa | 0 mm | - | 269 W/m² | - |
| 1777407862 | 17.22° C | 52% | 1015.2 hPa | 0 mm | - | 330 W/m² | - |
| 1777407560 | 17.22° C | 51% | 1014.9 hPa | 0 mm | - | 351 W/m² | - |
| 1777407259 | 19.44° C | 48% | 1014.7 hPa | 0 mm | - | 825 W/m² | - |
| 1777406958 | 18.89° C | 49% | 1014.7 hPa | 0 mm | - | 475 W/m² | - |
| 1777406653 | 18.89° C | 47% | 1014.6 hPa | 0 mm | - | 455 W/m² | - |
| 1777406350 | 18.33° C | 48% | 1014.6 hPa | 0 mm | - | 390 W/m² | - |
| 1777406049 | 17.78° C | 52% | 1014.9 hPa | 0 mm | - | 502 W/m² | - |
| 1777405746 | 18.33° C | 48% | 1015.1 hPa | 0 mm | - | 372 W/m² | - |
| 1777405442 | 20.56° C | 41% | 1015.4 hPa | 0 mm | - | 315 W/m² | - |
| 1777405140 | 20° C | 46% | 1015.4 hPa | 0 mm | - | 372 W/m² | - |
| 1777404838 | 20° C | 46% | 1014.9 hPa | 0 mm | - | 866 W/m² | - |
| 1777404535 | 20° C | 43% | 1015 hPa | 0 mm | - | 534 W/m² | - |
| 1777404230 | 21.11° C | 43% | 1014.7 hPa | 0 mm | - | 1072 W/m² | - |
| 1777403927 | 20.56° C | 45% | 1014.7 hPa | 0 mm | - | 1127 W/m² | - |
| 1777403626 | 20° C | 46% | 1014.9 hPa | 0 mm | - | 968 W/m² | - |
| 1777403321 | 20.56° C | 43% | 1015.2 hPa | 0 mm | - | 1117 W/m² | - |
| 1777403016 | 20.56° C | 43% | 1014.9 hPa | 0 mm | - | 699 W/m² | - |
| 1777402711 | 20.56° C | 45% | 1014.8 hPa | 0 mm | - | 1068 W/m² | - |
| 1777402412 | 20.56° C | 44% | 1015.1 hPa | 0 mm | - | 393 W/m² | - |
| 1777402110 | 18.33° C | 50% | 1015 hPa | 0 mm | - | 892 W/m² | - |
* Rain latest hour (hover to see other rain measurements)
** Current wind speed in m/s (hover to see current wind gust speed)